メインページ
METAR-TAF:

METAR-TAF

空港 :

ホセ・マルティ国際空港

ハバナ, キューバ

緯度: 22-59N, 経度: 082-24W, 海抜: 59m

現時点の気象観測

当レポートは32分前の18:55(UTC)に作成
北東の風 8kt、北/北東からの間で変化する
気温 32°C
湿度 67%
気圧 1012 hPa
視程: 9000m
高度3000ftの千切れ雲あり

METAR: MUHA 181855Z 05008KT 020V090 9000 BKN030 32/25 Q1012

時間: 15:27 (19:27 UTC)

予報

当レポートは2時間27分前の17:00(UTC)に作成
予報は18日の 18時(UTC)から 19日の 18時(UTC)まで有効
の風 8kt
視程: 9000m
高度3000ftの雲は散在している
18日の 18時(UTC)から 18日の 24時(UTC)まで一時的に
変向風 10kt
視程: 3000m
高度2000ftの雲はほとんどない, 積乱雲.
高度2500ftの千切れ雲あり
激しい雷雨, 雨

TAF: MUHA 181700Z 1818/1918 09008KT 9000 SCT030 TEMPO 1818/1824 VRB10KT 3000 TSRA FEW020CB BKN025

4,000以上の空港の気象観測と天気予報(METAR報とTAF報)

利用可能な観測所は地図上に黄色い丸と赤い丸で示す。

丸の上にカーソルを重ねると観測所名を参照できる。

次にクリックすると気象観測と天気予報を参照できる。

マップの切り替え:黒色「×」印の緑ボタンをクリックして拡大、「-」印の緑ボタンをクリックして縮小、緑色の三角印をクリックして隣りの地図に切り替え


METAR-TAF: